Mustafa Dayi — TCZF2 — position and weather

sailwx.info

Track history (hours):
 
Tides and Currents Weather Stations Pressure Air Temp Water Temp Dewpoint Dewpoint Depression Visibility Wind Speed Wind Dir Waves Ship Positions

Mustafa Dayi

Last reported at 2017-Aug-20 16:34 UTC. Time now 2017-Aug-23 11:52 UTC.
Position N 35°13' E 016°06'.

Length 183 m; draft 10.2 m.

Type: Ship (hazmat cat A). MMSI: 271042433.

Date/timePositionNaut miles runAvg speedWind from/ knotsBaromVisibWave heightAir tempDewpointWater temp
2017-Aug-20 16:34N 35°13' E 016°06'115.2
2017-Aug-20 16:29N 35°13' E 016°05'8515.5
2017-Aug-20 10:58N 35°41' E 014°26'815.5
2017-Aug-20 10:29N 35°44' E 014°18'715.5
2017-Aug-20 10:00N 35°48' E 014°10'815.4
2017-Aug-20 09:29N 35°52' E 014°02'815.3
2017-Aug-20 09:00N 35°57' E 013°54'815.3
2017-Aug-20 08:30N 36°01' E 013°46'715.0
2017-Aug-20 08:00N 36°05' E 013°39'714.7
2017-Aug-20 07:30N 36°09' E 013°31'714.5
2017-Aug-20 07:00N 36°14' E 013°24'714.4
2017-Aug-20 06:30N 36°18' E 013°17'714.3
2017-Aug-20 06:00N 36°22' E 013°10'714.1
2017-Aug-20 05:30N 36°26' E 013°02'713.9
2017-Aug-20 05:00N 36°29' E 012°55'713.9
2017-Aug-20 04:30N 36°33' E 012°47'714.0
2017-Aug-20 04:00N 36°36' E 012°40'714.2
2017-Aug-20 03:30N 36°40' E 012°32'714.2
2017-Aug-20 03:00N 36°44' E 012°25'714.3
2017-Aug-20 02:30N 36°48' E 012°17'714.6
2017-Aug-20 02:00N 36°52' E 012°10'714.8
2017-Aug-20 01:30N 36°55' E 012°02'714.6
2017-Aug-20 01:00N 36°59' E 011°54'714.7
2017-Aug-20 00:30N 37°03' E 011°46'715.0
2017-Aug-20 00:00N 37°07' E 011°38'715.1
2017-Aug-19 23:30N 37°11' E 011°30'815.0
2017-Aug-19 23:00N 37°15' E 011°22'714.8
2017-Aug-19 22:30N 37°19' E 011°14'814.8
2017-Aug-19 22:00N 37°23' E 011°06'815.1
2017-Aug-19 21:29N 37°25' E 010°57'714.8
2017-Aug-19 21:00N 37°26' E 010°48'1414.5
2017-Aug-19 20:04N 37°29' E 010°31'514.5
2017-Aug-19 19:42N 37°31' E 010°25'314.5
2017-Aug-19 19:30N 37°32' E 010°22'714.2
2017-Aug-19 19:00N 37°33' E 010°13'714.2
2017-Aug-19 18:30N 37°34' E 010°04'714.3
2017-Aug-19 18:00N 37°34' E 009°55'714.5
2017-Aug-19 17:30N 37°33' E 009°46'714.2
2017-Aug-19 17:00N 37°33' E 009°37'2113.9
2017-Aug-19 15:29N 37°25' E 009°12'714.5
2017-Aug-19 15:00N 37°23' E 009°04'17414.1
2017-Aug-19 02:39N 37°22' E 005°25'214.4
2017-Aug-19 02:29N 37°22' E 005°22'2814.6
2017-Aug-19 00:32N 37°18' E 004°47'115.1
2017-Aug-19 00:29N 37°18' E 004°46'714.9
2017-Aug-19 00:00N 37°17' E 004°37'715.0
2017-Aug-18 23:30N 37°16' E 004°28'2614.6
2017-Aug-18 21:44N 37°14' E 003°55'1314.5
2017-Aug-18 20:51N 37°12' E 003°39'514.7
2017-Aug-18 20:30N 37°11' E 003°33'714.7
2017-Aug-18 20:00N 37°10' E 003°24'714.6
2017-Aug-18 19:30N 37°09' E 003°15'714.8
2017-Aug-18 19:00N 37°07' E 003°06'714.9
2017-Aug-18 18:30N 37°06' E 002°57'714.6
2017-Aug-18 18:01N 37°04' E 002°48'714.4
2017-Aug-18 17:30N 37°03' E 002°39'814.4
2017-Aug-18 16:59N 37°02' E 002°29'714.4
2017-Aug-18 16:30N 37°01' E 002°21'714.3
2017-Aug-18 16:00N 36°60' E 002°12'714.3
2017-Aug-18 15:30N 36°58' E 002°03'814.1
2017-Aug-18 14:58N 36°57' E 001°54'1314.1
2017-Aug-18 14:00N 36°55' E 001°37'914.2
2017-Aug-18 13:22N 36°53' E 001°26'614.8
2017-Aug-18 12:56N 36°52' E 001°18'3814.6
2017-Aug-18 10:20N 36°43' E 000°32'514.2
2017-Aug-18 10:00N 36°42' E 000°26'714.2
2017-Aug-18 09:29N 36°41' E 000°17'1914.2
2017-Aug-18 08:07N 36°37' W 000°06'214.2
2017-Aug-18 07:58N 36°37' W 000°09'713.8
2017-Aug-18 07:30N 36°36' W 000°17'713.7
2017-Aug-18 06:58N 36°35' W 000°26'613.8
2017-Aug-18 06:30N 36°34' W 000°34'714.4
2017-Aug-18 06:00N 36°33' W 000°43'714.4
2017-Aug-18 05:30N 36°31' W 000°51'714.4
2017-Aug-18 05:00N 36°30' W 001°00'814.2
2017-Aug-18 04:28N 36°29' W 001°10'714.2
2017-Aug-18 04:00N 36°28' W 001°18'714.5
2017-Aug-18 03:29N 36°27' W 001°27'814.6
2017-Aug-18 02:58N 36°26' W 001°36'714.6
2017-Aug-18 02:30N 36°25' W 001°45'814.7
2017-Aug-18 01:56N 36°24' W 001°55'914.7
2017-Aug-18 01:18N 36°22' W 002°06'614.8
2017-Aug-18 00:55N 36°22' W 002°13'714.7
2017-Aug-18 00:26N 36°21' W 002°22'614.6
2017-Aug-17 23:59N 36°19' W 002°30'914.3
2017-Aug-17 23:23N 36°18' W 002°40'13311.8
2017-Aug-17 12:05N 36°08' W 005°25'0 0.0
2017-Aug-17 11:56N 36°08' W 005°25'0 0.0
2017-Aug-17 11:29N 36°08' W 005°25'0 0.0
2017-Aug-17 10:58N 36°08' W 005°25'0 0.0
2017-Aug-17 10:15N 36°08' W 005°25'0 0.0
2017-Aug-17 09:45N 36°08' W 005°25'0 0.0
2017-Aug-17 09:27N 36°08' W 005°25'0 0.0
2017-Aug-17 08:40N 36°08' W 005°25'0 0.0
2017-Aug-17 08:28N 36°08' W 005°25'0 0.0
2017-Aug-17 07:55N 36°08' W 005°25'0 0.0
2017-Aug-17 07:18N 36°08' W 005°25'0 0.0
2017-Aug-17 07:00N 36°08' W 005°25'0 0.0
2017-Aug-17 05:03N 36°08' W 005°25'0 0.0
2017-Aug-17 05:00N 36°08' W 005°25'0 0.0
2017-Aug-17 04:30N 36°08' W 005°25'0 0.0
2017-Aug-17 04:00N 36°08' W 005°25'0 0.0
2017-Aug-17 03:27N 36°08' W 005°25'0 0.0
2017-Aug-17 02:47N 36°08' W 005°25'0 0.0
2017-Aug-17 02:26N 36°08' W 005°25'0 0.0
2017-Aug-17 01:59N 36°08' W 005°25'0 0.0
2017-Aug-17 01:29N 36°08' W 005°25'0 0.0
2017-Aug-17 00:56N 36°08' W 005°25'0 0.0
2017-Aug-17 00:28N 36°08' W 005°25'0 0.0
2017-Aug-16 22:34N 36°08' W 005°25'0 0.0
2017-Aug-16 22:28N 36°08' W 005°25'0 0.0
2017-Aug-16 22:00N 36°08' W 005°25'0 0.0
2017-Aug-16 21:21N 36°08' W 005°25'0 0.0
2017-Aug-16 20:57N 36°08' W 005°25'0 0.0
2017-Aug-16 20:30N 36°08' W 005°25'0 0.0
2017-Aug-16 19:56N 36°08' W 005°25'0 0.0
2017-Aug-16 19:29N 36°08' W 005°25'0 0.0
2017-Aug-16 18:50N 36°08' W 005°25'0 0.0
2017-Aug-16 18:20N 36°08' W 005°25'0 0.0
2017-Aug-16 17:59N 36°08' W 005°25'0 0.0
2017-Aug-16 17:30N 36°08' W 005°25'0 0.0
2017-Aug-16 16:56N 36°08' W 005°25'1 1.2
2017-Aug-16 16:22N 36°08' W 005°25'0 0.4
2017-Aug-16 15:57N 36°08' W 005°25'0 0.1
2017-Aug-16 15:27N 36°08' W 005°25'0 0.1
2017-Aug-16 14:45N 36°08' W 005°25'0 0.1
2017-Aug-16 14:27N 36°08' W 005°25'0 0.0
2017-Aug-16 13:57N 36°08' W 005°25'0 0.0
2017-Aug-16 13:29N 36°08' W 005°25'0 0.0
2017-Aug-16 11:56N 36°08' W 005°25'0 0.0
2017-Aug-16 11:23N 36°08' W 005°25'0 0.0
2017-Aug-16 10:07N 36°08' W 005°25'0 0.1
2017-Aug-16 09:55N 36°08' W 005°25'0 0.0
2017-Aug-16 06:51N 36°08' W 005°25'0 0.0
2017-Aug-16 06:05N 36°08' W 005°25'0 0.0
2017-Aug-16 05:56N 36°08' W 005°25'0 0.0
2017-Aug-16 05:29N 36°08' W 005°25'0 0.1
2017-Aug-16 04:59N 36°08' W 005°25'0 0.1
2017-Aug-16 02:43N 36°07' W 005°25'0 0.0
2017-Aug-16 02:16N 36°07' W 005°25'0 0.1
2017-Aug-16 01:45N 36°07' W 005°25'0 0.1
2017-Aug-16 01:30N 36°08' W 005°25'0 0.0
2017-Aug-16 01:00N 36°08' W 005°25'0 0.1
2017-Aug-16 00:27N 36°08' W 005°25'0 0.1
2017-Aug-16 00:00N 36°08' W 005°25'0 0.2
2017-Aug-15 23:26N 36°08' W 005°25'0 0.0
2017-Aug-15 20:41N 36°08' W 005°25'0 1.0
2017-Aug-15 20:30N 36°08' W 005°24'4 4.0
2017-Aug-15 19:26N 36°04' W 005°22'511.9
2017-Aug-15 19:00N 36°04' W 005°16'1 2.5
2017-Aug-15 18:30N 36°05' W 005°15'1 1.5
2017-Aug-15 18:00N 36°06' W 005°14'1 2.0
2017-Aug-15 17:30N 36°06' W 005°13'2 3.2
2017-Aug-15 16:57N 36°05' W 005°14'1 1.7
2017-Aug-15 16:30N 36°05' W 005°15'0 0.2
2017-Aug-15 16:00N 36°05' W 005°15'0 0.9
2017-Aug-15 15:30N 36°05' W 005°14'1 1.2
2017-Aug-15 15:00N 36°06' W 005°14'1 1.0
2017-Aug-15 14:05N 36°05' W 005°14'1 2.9
2017-Aug-15 13:50N 36°04' W 005°14'0 1.0
2017-Aug-15 13:30N 36°04' W 005°14'1 1.4
2017-Aug-15 13:00N 36°05' W 005°14'1 2.1
2017-Aug-15 12:30N 36°06' W 005°14'4 7.3
2017-Aug-15 12:00N 36°04' W 005°18'4 7.6
2017-Aug-15 11:30N 36°02' W 005°22'1 2.5
2017-Aug-15 11:00N 36°03' W 005°23'0 0.5
2017-Aug-15 10:30N 36°03' W 005°23'4 8.4
2017-Aug-15 10:00N 35°59' W 005°24'1616.2
2017-Aug-15 09:01N 35°54' W 005°43'017.1
2017-Aug-15 09:00N 35°54' W 005°43'917.0
2017-Aug-15 08:30N 35°54' W 005°53'8215.6
2017-Aug-15 03:13N 35°45' W 007°34'715.2
2017-Aug-15 02:46N 35°44' W 007°43'515.1
2017-Aug-15 02:27N 35°44' W 007°48'715.4
2017-Aug-15 01:59N 35°43' W 007°57'1115.5
2017-Aug-15 01:16N 35°41' W 008°11'415.7
2017-Aug-15 01:00N 35°40' W 008°16'1015.7
2017-Aug-15 00:21N 35°39' W 008°28'716.2
2017-Aug-14 23:56N 35°38' W 008°37'715.3
2017-Aug-14 23:28N 35°37' W 008°45'816.1
2017-Aug-14 22:57N 35°36' W 008°55'715.5
2017-Aug-14 22:30N 35°35' W 009°04'915.6
2017-Aug-14 21:57N 35°34' W 009°14'715.8
2017-Aug-14 21:30N 35°33' W 009°23'815.8
2017-Aug-14 21:00N 35°32' W 009°33'916.0
2017-Aug-14 20:28N 35°31' W 009°43'915.7
2017-Aug-14 19:54N 35°30' W 009°54'615.7
2017-Aug-14 19:30N 35°30' W 010°02'815.9
2017-Aug-14 19:00N 35°29' W 010°11'815.9
2017-Aug-14 18:30N 35°29' W 010°21'816.2
2017-Aug-14 18:00N 35°28' W 010°31'1016.1
2017-Aug-14 17:24N 35°27' W 010°43'1316.1
2017-Aug-14 16:35N 35°26' W 010°59'116.1
2017-Aug-14 16:30N 35°26' W 011°01'816.2
2017-Aug-14 16:00N 35°25' W 011°10'816.4
2017-Aug-14 15:30N 35°24' W 011°20'816.2
2017-Aug-14 15:00N 35°24' W 011°30'815.6
2017-Aug-14 14:29N 35°23' W 011°40'816.4
2017-Aug-14 14:00N 35°23' W 011°50'816.5
2017-Aug-14 13:30N 35°22' W 012°00'816.2
2017-Aug-14 13:00N 35°21' W 012°10'1016.0
2017-Aug-14 12:24N 35°21' W 012°22'616.2
2017-Aug-14 12:00N 35°20' W 012°29'816.4
2017-Aug-14 11:30N 35°19' W 012°39'816.2
2017-Aug-14 11:00N 35°19' W 012°49'816.1
2017-Aug-14 10:30N 35°18' W 012°59'816.1
2017-Aug-14 10:00N 35°17' W 013°09'1116.3
2017-Aug-14 09:19N 35°17' W 013°23'816.2
2017-Aug-14 08:50N 35°17' W 013°32'716.2
2017-Aug-14 08:23N 35°16' W 013°41'616.1
2017-Aug-14 08:00N 35°15' W 013°49'816.0
2017-Aug-14 07:30N 35°15' W 013°58'816.4
2017-Aug-14 07:00N 35°14' W 014°08'916.6
2017-Aug-14 06:28N 35°13' W 014°19'716.3
2017-Aug-14 06:00N 35°12' W 014°28'816.1
2017-Aug-14 05:30N 35°12' W 014°38'816.3
2017-Aug-14 05:00N 35°11' W 014°48'1616.2
2017-Aug-14 04:02N 35°10' W 015°07'016.1
2017-Aug-14 04:00N 35°10' W 015°08'1916.2
2017-Aug-14 02:51N 35°08' W 015°31'616.4
2017-Aug-14 02:30N 35°08' W 015°37'816.7
2017-Aug-14 02:00N 35°07' W 015°48'916.2
2017-Aug-14 01:29N 35°06' W 015°58'816.3
2017-Aug-14 01:00N 35°06' W 016°07'816.3
2017-Aug-14 00:30N 35°05' W 016°17'5 9.8
2017-Aug-14 00:00N 35°00' W 016°18'10161.8 070 / 161015.010.8 24.021.020.0
2017-Aug-13 23:56N 35°04' W 016°29'716.5
2017-Aug-13 23:30N 35°04' W 016°37'1516.2
2017-Aug-13 22:33N 35°02' W 016°56'116.3
2017-Aug-13 22:30N 35°02' W 016°57'816.1
2017-Aug-13 22:00N 35°02' W 017°07'815.9
2017-Aug-13 21:30N 35°01' W 017°17'815.8
2017-Aug-13 21:00N 34°60' W 017°26'915.9
2017-Aug-13 20:26N 34°59' W 017°37'716.1
2017-Aug-13 20:00N 34°58' W 017°45'816.1
2017-Aug-13 19:30N 34°57' W 017°55'1115.9
2017-Aug-13 18:50N 34°56' W 018°08'516.0
2017-Aug-13 18:30N 34°55' W 018°15'816.1
2017-Aug-13 17:59N 34°55' W 018°25'815.8
2017-Aug-13 17:30N 34°54' W 018°34'815.6
2017-Aug-13 16:58N 34°53' W 018°44'715.7
2017-Aug-13 16:30N 34°52' W 018°53'815.9
2017-Aug-13 16:00N 34°51' W 019°03'1316.1
2017-Aug-13 15:10N 34°50' W 019°19'316.1
2017-Aug-13 15:00N 34°50' W 019°22'2316.2
2017-Aug-13 13:35N 34°48' W 019°50'616.1
2017-Aug-13 13:13N 34°48' W 019°57'42916.4
2017-Aug-12 11:00N 34°12' W 028°36'39117.0 010 / 101020.0 26.019.921.0
2017-Aug-11 12:00N 33°30' W 036°24'11616.5 170 / 171018.010.8 26.021.525.0
2017-Aug-11 05:00N 33°18' W 038°42'8113.5 140 / 181016.010.8 27.021.023.0
2017-Aug-10 23:00N 33°06' W 040°18'10617.7 120 / 171017.010.8 27.024.125.0
2017-Aug-10 17:00N 32°54' W 042°24'   070 / 161017.027.0 28.023.722.0
Track history (hours):
 
Tides and Currents Weather Stations Pressure Air Temp Water Temp Dewpoint Dewpoint Depression Visibility Wind Speed Wind Dir Waves Ship Positions

Mustafa Dayi

Last reported at 2017-Aug-20 16:34 UTC. Time now 2017-Aug-23 11:52 UTC.
Position N 35°13' E 016°06'.

Length 183 m; draft 10.2 m.

Type: Ship (hazmat cat A). MMSI: 271042433.

Date/timePositionNaut miles runAvg speedWind from/ knotsBaromVisibWave heightAir tempDewpointWater temp
2017-Aug-20 16:34N 35°13' E 016°06'115.2
2017-Aug-20 16:29N 35°13' E 016°05'8515.5
2017-Aug-20 10:58N 35°41' E 014°26'815.5
2017-Aug-20 10:29N 35°44' E 014°18'715.5
2017-Aug-20 10:00N 35°48' E 014°10'815.4
2017-Aug-20 09:29N 35°52' E 014°02'815.3
2017-Aug-20 09:00N 35°57' E 013°54'815.3
2017-Aug-20 08:30N 36°01' E 013°46'715.0
2017-Aug-20 08:00N 36°05' E 013°39'714.7
2017-Aug-20 07:30N 36°09' E 013°31'714.5
2017-Aug-20 07:00N 36°14' E 013°24'714.4
2017-Aug-20 06:30N 36°18' E 013°17'714.3
2017-Aug-20 06:00N 36°22' E 013°10'714.1
2017-Aug-20 05:30N 36°26' E 013°02'713.9
2017-Aug-20 05:00N 36°29' E 012°55'713.9
2017-Aug-20 04:30N 36°33' E 012°47'714.0
2017-Aug-20 04:00N 36°36' E 012°40'714.2
2017-Aug-20 03:30N 36°40' E 012°32'714.2
2017-Aug-20 03:00N 36°44' E 012°25'714.3
2017-Aug-20 02:30N 36°48' E 012°17'714.6
2017-Aug-20 02:00N 36°52' E 012°10'714.8
2017-Aug-20 01:30N 36°55' E 012°02'714.6
2017-Aug-20 01:00N 36°59' E 011°54'714.7
2017-Aug-20 00:30N 37°03' E 011°46'715.0
2017-Aug-20 00:00N 37°07' E 011°38'715.1
2017-Aug-19 23:30N 37°11' E 011°30'815.0
2017-Aug-19 23:00N 37°15' E 011°22'714.8
2017-Aug-19 22:30N 37°19' E 011°14'814.8
2017-Aug-19 22:00N 37°23' E 011°06'815.1
2017-Aug-19 21:29N 37°25' E 010°57'714.8
2017-Aug-19 21:00N 37°26' E 010°48'1414.5
2017-Aug-19 20:04N 37°29' E 010°31'514.5
2017-Aug-19 19:42N 37°31' E 010°25'314.5
2017-Aug-19 19:30N 37°32' E 010°22'714.2
2017-Aug-19 19:00N 37°33' E 010°13'714.2
2017-Aug-19 18:30N 37°34' E 010°04'714.3
2017-Aug-19 18:00N 37°34' E 009°55'714.5
2017-Aug-19 17:30N 37°33' E 009°46'714.2
2017-Aug-19 17:00N 37°33' E 009°37'2113.9
2017-Aug-19 15:29N 37°25' E 009°12'714.5
2017-Aug-19 15:00N 37°23' E 009°04'17414.1
2017-Aug-19 02:39N 37°22' E 005°25'214.4
2017-Aug-19 02:29N 37°22' E 005°22'2814.6
2017-Aug-19 00:32N 37°18' E 004°47'115.1
2017-Aug-19 00:29N 37°18' E 004°46'714.9
2017-Aug-19 00:00N 37°17' E 004°37'715.0
2017-Aug-18 23:30N 37°16' E 004°28'2614.6
2017-Aug-18 21:44N 37°14' E 003°55'1314.5
2017-Aug-18 20:51N 37°12' E 003°39'514.7
2017-Aug-18 20:30N 37°11' E 003°33'714.7
2017-Aug-18 20:00N 37°10' E 003°24'714.6
2017-Aug-18 19:30N 37°09' E 003°15'714.8
2017-Aug-18 19:00N 37°07' E 003°06'714.9
2017-Aug-18 18:30N 37°06' E 002°57'714.6
2017-Aug-18 18:01N 37°04' E 002°48'714.4
2017-Aug-18 17:30N 37°03' E 002°39'814.4
2017-Aug-18 16:59N 37°02' E 002°29'714.4
2017-Aug-18 16:30N 37°01' E 002°21'714.3
2017-Aug-18 16:00N 36°60' E 002°12'714.3
2017-Aug-18 15:30N 36°58' E 002°03'814.1
2017-Aug-18 14:58N 36°57' E 001°54'1314.1
2017-Aug-18 14:00N 36°55' E 001°37'914.2
2017-Aug-18 13:22N 36°53' E 001°26'614.8
2017-Aug-18 12:56N 36°52' E 001°18'3814.6
2017-Aug-18 10:20N 36°43' E 000°32'514.2
2017-Aug-18 10:00N 36°42' E 000°26'714.2
2017-Aug-18 09:29N 36°41' E 000°17'1914.2
2017-Aug-18 08:07N 36°37' W 000°06'214.2
2017-Aug-18 07:58N 36°37' W 000°09'713.8
2017-Aug-18 07:30N 36°36' W 000°17'713.7
2017-Aug-18 06:58N 36°35' W 000°26'613.8
2017-Aug-18 06:30N 36°34' W 000°34'714.4
2017-Aug-18 06:00N 36°33' W 000°43'714.4
2017-Aug-18 05:30N 36°31' W 000°51'714.4
2017-Aug-18 05:00N 36°30' W 001°00'814.2
2017-Aug-18 04:28N 36°29' W 001°10'714.2
2017-Aug-18 04:00N 36°28' W 001°18'714.5
2017-Aug-18 03:29N 36°27' W 001°27'814.6
2017-Aug-18 02:58N 36°26' W 001°36'714.6
2017-Aug-18 02:30N 36°25' W 001°45'814.7
2017-Aug-18 01:56N 36°24' W 001°55'914.7
2017-Aug-18 01:18N 36°22' W 002°06'614.8
2017-Aug-18 00:55N 36°22' W 002°13'714.7
2017-Aug-18 00:26N 36°21' W 002°22'614.6
2017-Aug-17 23:59N 36°19' W 002°30'914.3
2017-Aug-17 23:23N 36°18' W 002°40'13311.8
2017-Aug-17 12:05N 36°08' W 005°25'0 0.0
2017-Aug-17 11:56N 36°08' W 005°25'0 0.0
2017-Aug-17 11:29N 36°08' W 005°25'0 0.0
2017-Aug-17 10:58N 36°08' W 005°25'0 0.0
2017-Aug-17 10:15N 36°08' W 005°25'0 0.0
2017-Aug-17 09:45N 36°08' W 005°25'0 0.0
2017-Aug-17 09:27N 36°08' W 005°25'0 0.0
2017-Aug-17 08:40N 36°08' W 005°25'0 0.0
2017-Aug-17 08:28N 36°08' W 005°25'0 0.0
2017-Aug-17 07:55N 36°08' W 005°25'0 0.0
2017-Aug-17 07:18N 36°08' W 005°25'0 0.0
2017-Aug-17 07:00N 36°08' W 005°25'0 0.0
2017-Aug-17 05:03N 36°08' W 005°25'0 0.0
2017-Aug-17 05:00N 36°08' W 005°25'0 0.0
2017-Aug-17 04:30N 36°08' W 005°25'0 0.0
2017-Aug-17 04:00N 36°08' W 005°25'0 0.0
2017-Aug-17 03:27N 36°08' W 005°25'0 0.0
2017-Aug-17 02:47N 36°08' W 005°25'0 0.0
2017-Aug-17 02:26N 36°08' W 005°25'0 0.0
2017-Aug-17 01:59N 36°08' W 005°25'0 0.0
2017-Aug-17 01:29N 36°08' W 005°25'0 0.0
2017-Aug-17 00:56N 36°08' W 005°25'0 0.0
2017-Aug-17 00:28N 36°08' W 005°25'0 0.0
2017-Aug-16 22:34N 36°08' W 005°25'0 0.0
2017-Aug-16 22:28N 36°08' W 005°25'0 0.0
2017-Aug-16 22:00N 36°08' W 005°25'0 0.0
2017-Aug-16 21:21N 36°08' W 005°25'0 0.0
2017-Aug-16 20:57N 36°08' W 005°25'0 0.0
2017-Aug-16 20:30N 36°08' W 005°25'0 0.0
2017-Aug-16 19:56N 36°08' W 005°25'0 0.0
2017-Aug-16 19:29N 36°08' W 005°25'0 0.0
2017-Aug-16 18:50N 36°08' W 005°25'0 0.0
2017-Aug-16 18:20N 36°08' W 005°25'0 0.0
2017-Aug-16 17:59N 36°08' W 005°25'0 0.0
2017-Aug-16 17:30N 36°08' W 005°25'0 0.0
2017-Aug-16 16:56N 36°08' W 005°25'1 1.2
2017-Aug-16 16:22N 36°08' W 005°25'0 0.4
2017-Aug-16 15:57N 36°08' W 005°25'0 0.1
2017-Aug-16 15:27N 36°08' W 005°25'0 0.1
2017-Aug-16 14:45N 36°08' W 005°25'0 0.1
2017-Aug-16 14:27N 36°08' W 005°25'0 0.0
2017-Aug-16 13:57N 36°08' W 005°25'0 0.0
2017-Aug-16 13:29N 36°08' W 005°25'0 0.0
2017-Aug-16 11:56N 36°08' W 005°25'0 0.0
2017-Aug-16 11:23N 36°08' W 005°25'0 0.0
2017-Aug-16 10:07N 36°08' W 005°25'0 0.1
2017-Aug-16 09:55N 36°08' W 005°25'0 0.0
2017-Aug-16 06:51N 36°08' W 005°25'0 0.0
2017-Aug-16 06:05N 36°08' W 005°25'0 0.0
2017-Aug-16 05:56N 36°08' W 005°25'0 0.0
2017-Aug-16 05:29N 36°08' W 005°25'0 0.1
2017-Aug-16 04:59N 36°08' W 005°25'0 0.1
2017-Aug-16 02:43N 36°07' W 005°25'0 0.0
2017-Aug-16 02:16N 36°07' W 005°25'0 0.1
2017-Aug-16 01:45N 36°07' W 005°25'0 0.1
2017-Aug-16 01:30N 36°08' W 005°25'0 0.0
2017-Aug-16 01:00N 36°08' W 005°25'0 0.1
2017-Aug-16 00:27N 36°08' W 005°25'0 0.1
2017-Aug-16 00:00N 36°08' W 005°25'0 0.2
2017-Aug-15 23:26N 36°08' W 005°25'0 0.0
2017-Aug-15 20:41N 36°08' W 005°25'0 1.0
2017-Aug-15 20:30N 36°08' W 005°24'4 4.0
2017-Aug-15 19:26N 36°04' W 005°22'511.9
2017-Aug-15 19:00N 36°04' W 005°16'1 2.5
2017-Aug-15 18:30N 36°05' W 005°15'1 1.5
2017-Aug-15 18:00N 36°06' W 005°14'1 2.0
2017-Aug-15 17:30N 36°06' W 005°13'2 3.2
2017-Aug-15 16:57N 36°05' W 005°14'1 1.7
2017-Aug-15 16:30N 36°05' W 005°15'0 0.2
2017-Aug-15 16:00N 36°05' W 005°15'0 0.9
2017-Aug-15 15:30N 36°05' W 005°14'1 1.2
2017-Aug-15 15:00N 36°06' W 005°14'1 1.0
2017-Aug-15 14:05N 36°05' W 005°14'1 2.9
2017-Aug-15 13:50N 36°04' W 005°14'0 1.0
2017-Aug-15 13:30N 36°04' W 005°14'1 1.4
2017-Aug-15 13:00N 36°05' W 005°14'1 2.1
2017-Aug-15 12:30N 36°06' W 005°14'4 7.3
2017-Aug-15 12:00N 36°04' W 005°18'4 7.6
2017-Aug-15 11:30N 36°02' W 005°22'1 2.5
2017-Aug-15 11:00N 36°03' W 005°23'0 0.5
2017-Aug-15 10:30N 36°03' W 005°23'4 8.4
2017-Aug-15 10:00N 35°59' W 005°24'1616.2
2017-Aug-15 09:01N 35°54' W 005°43'017.1
2017-Aug-15 09:00N 35°54' W 005°43'917.0
2017-Aug-15 08:30N 35°54' W 005°53'8215.6
2017-Aug-15 03:13N 35°45' W 007°34'715.2
2017-Aug-15 02:46N 35°44' W 007°43'515.1
2017-Aug-15 02:27N 35°44' W 007°48'715.4
2017-Aug-15 01:59N 35°43' W 007°57'1115.5
2017-Aug-15 01:16N 35°41' W 008°11'415.7
2017-Aug-15 01:00N 35°40' W 008°16'1015.7
2017-Aug-15 00:21N 35°39' W 008°28'716.2
2017-Aug-14 23:56N 35°38' W 008°37'715.3
2017-Aug-14 23:28N 35°37' W 008°45'816.1
2017-Aug-14 22:57N 35°36' W 008°55'715.5
2017-Aug-14 22:30N 35°35' W 009°04'915.6
2017-Aug-14 21:57N 35°34' W 009°14'715.8
2017-Aug-14 21:30N 35°33' W 009°23'815.8
2017-Aug-14 21:00N 35°32' W 009°33'916.0
2017-Aug-14 20:28N 35°31' W 009°43'915.7
2017-Aug-14 19:54N 35°30' W 009°54'615.7
2017-Aug-14 19:30N 35°30' W 010°02'815.9
2017-Aug-14 19:00N 35°29' W 010°11'815.9
2017-Aug-14 18:30N 35°29' W 010°21'816.2
2017-Aug-14 18:00N 35°28' W 010°31'1016.1
2017-Aug-14 17:24N 35°27' W 010°43'1316.1
2017-Aug-14 16:35N 35°26' W 010°59'116.1
2017-Aug-14 16:30N 35°26' W 011°01'816.2
2017-Aug-14 16:00N 35°25' W 011°10'816.4
2017-Aug-14 15:30N 35°24' W 011°20'816.2
2017-Aug-14 15:00N 35°24' W 011°30'815.6
2017-Aug-14 14:29N 35°23' W 011°40'816.4
2017-Aug-14 14:00N 35°23' W 011°50'816.5
2017-Aug-14 13:30N 35°22' W 012°00'816.2
2017-Aug-14 13:00N 35°21' W 012°10'1016.0
2017-Aug-14 12:24N 35°21' W 012°22'616.2
2017-Aug-14 12:00N 35°20' W 012°29'816.4
2017-Aug-14 11:30N 35°19' W 012°39'816.2
2017-Aug-14 11:00N 35°19' W 012°49'816.1
2017-Aug-14 10:30N 35°18' W 012°59'816.1
2017-Aug-14 10:00N 35°17' W 013°09'1116.3
2017-Aug-14 09:19N 35°17' W 013°23'816.2
2017-Aug-14 08:50N 35°17' W 013°32'716.2
2017-Aug-14 08:23N 35°16' W 013°41'616.1
2017-Aug-14 08:00N 35°15' W 013°49'816.0
2017-Aug-14 07:30N 35°15' W 013°58'816.4
2017-Aug-14 07:00N 35°14' W 014°08'916.6
2017-Aug-14 06:28N 35°13' W 014°19'716.3
2017-Aug-14 06:00N 35°12' W 014°28'816.1
2017-Aug-14 05:30N 35°12' W 014°38'816.3
2017-Aug-14 05:00N 35°11' W 014°48'1616.2
2017-Aug-14 04:02N 35°10' W 015°07'016.1
2017-Aug-14 04:00N 35°10' W 015°08'1916.2
2017-Aug-14 02:51N 35°08' W 015°31'616.4
2017-Aug-14 02:30N 35°08' W 015°37'816.7
2017-Aug-14 02:00N 35°07' W 015°48'916.2
2017-Aug-14 01:29N 35°06' W 015°58'816.3
2017-Aug-14 01:00N 35°06' W 016°07'816.3
2017-Aug-14 00:30N 35°05' W 016°17'5 9.8
2017-Aug-14 00:00N 35°00' W 016°18'10161.8 070 / 161015.010.8 24.021.020.0
2017-Aug-13 23:56N 35°04' W 016°29'716.5
2017-Aug-13 23:30N 35°04' W 016°37'1516.2
2017-Aug-13 22:33N 35°02' W 016°56'116.3
2017-Aug-13 22:30N 35°02' W 016°57'816.1
2017-Aug-13 22:00N 35°02' W 017°07'815.9
2017-Aug-13 21:30N 35°01' W 017°17'815.8
2017-Aug-13 21:00N 34°60' W 017°26'915.9
2017-Aug-13 20:26N 34°59' W 017°37'716.1
2017-Aug-13 20:00N 34°58' W 017°45'816.1
2017-Aug-13 19:30N 34°57' W 017°55'1115.9
2017-Aug-13 18:50N 34°56' W 018°08'516.0
2017-Aug-13 18:30N 34°55' W 018°15'816.1
2017-Aug-13 17:59N 34°55' W 018°25'815.8
2017-Aug-13 17:30N 34°54' W 018°34'815.6
2017-Aug-13 16:58N 34°53' W 018°44'715.7
2017-Aug-13 16:30N 34°52' W 018°53'815.9
2017-Aug-13 16:00N 34°51' W 019°03'1316.1
2017-Aug-13 15:10N 34°50' W 019°19'316.1
2017-Aug-13 15:00N 34°50' W 019°22'2316.2
2017-Aug-13 13:35N 34°48' W 019°50'616.1
2017-Aug-13 13:13N 34°48' W 019°57'42916.4
2017-Aug-12 11:00N 34°12' W 028°36'39117.0 010 / 101020.0 26.019.921.0
2017-Aug-11 12:00N 33°30' W 036°24'11616.5 170 / 171018.010.8 26.021.525.0
2017-Aug-11 05:00N 33°18' W 038°42'8113.5 140 / 181016.010.8 27.021.023.0
2017-Aug-10 23:00N 33°06' W 040°18'10617.7 120 / 171017.010.8 27.024.125.0
2017-Aug-10 17:00N 32°54' W 042°24'   070 / 161017.027.0 28.023.722.0

Dump ship's entire track history